Decoded Metar for LFMU (BEZIERS in FRANCE) (IATA:BZR) | Meteo·Mobile Aviation Weather
aviador You're here:

LFMU Decoded Metar

BEZIERS in FRANCE
Report Time2018-08-22 06:30:00
UTC Time2018-08-22 06:58:12
Flight Rules vfr VFR
WindVRB at 03 kt
Visibility9999 m
Phenomena:N/A
Clouds:N/A
Expected CloudBase > 2,400 ft AGL from Temp-Dew spread
CeilingNone
Temp23°C (ISA +8)
Dew Point17°C (69% RH)
QNH1016 hPa
Density Alt1,155 ft
Elevation56 ft
Report Wrong Elevation
Raw Report
LFMU 220630Z AUTO VRB03KT CAVOK 23/17 Q1016 NOSIG=

Extra information for LFMU:More info

Metar Taf Metar & Taf Last 4 Metars F.Rules Stats Wind Profile Meteogram Temp Stats Airport Information Weather charts Add Link Nearby VenuesMetar ALERT Operation Metar Decoded Social comments